Atlantic Beach, Florida
Current Conditions -  °F | °C
As of 3:52 AM on Wednesday 22 Oct 2014 (Local Time) from KNRB Reporting Station
Clear Clear  
Wind Chill: 66°   Ceiling: Unl
Heat Index: 66°   Visibility: 10mi
Dew Point: 59°   Wind: 5mph
Humidity: 78%   Direction: 320°NW
Pressure: 29.94"   Gusts: NA
Location:  30.33°N, 81.4°W
Report Text: KNRB 220752Z AUTO 32004KT 10SM CLR 19/15 A2994 RMK AO2 SLP137 T01890150
Loading
Personal Weather Stations






























Interactive Weather Map
Tropical Storm Tracking
New forecast layout! Learn more

10-Day Weather Forecast

Advertisements
Track Severe Weather on mobile